Time;durP1;ratioP1;P1;durP2;ratioP2;P2;SDS_P1;SDS_P2;PMS_P1;PMS_P2;Temp;Humidity;BMP_temperature;BMP_pressure;BME280_temperature;BME280_humidity;BME280_pressure;Samples;Min_cycle;Max_cycle;Signal;HPM_P1;HPM_P2
2021/05/11 00:01:58;;;;;;;0.40;0.40;;;15.30;69.40;;;;;;5078239;28;20044;-76
2021/05/11 00:04:24;;;;;;;0.98;0.60;;;15.30;69.50;;;;;;5098845;28;20470;-76
2021/05/11 00:06:50;;;;;;;1.15;0.50;;;15.30;69.60;;;;;;5078237;28;20125;-76
2021/05/11 00:09:15;;;;;;;0.35;0.30;;;15.30;69.70;;;;;;5080694;28;20038;-77
2021/05/11 00:11:41;;;;;;;0.40;0.40;;;15.20;69.80;;;;;;5077605;28;20037;-77
2021/05/11 00:14:07;;;;;;;0.47;0.40;;;15.20;69.80;;;;;;5098034;28;20114;-76
2021/05/11 00:16:34;;;;;;;0.50;0.30;;;15.10;69.90;;;;;;5075796;28;20102;-77
2021/05/11 00:19:02;;;;;;;0.32;0.30;;;15.00;69.90;;;;;;5079731;28;20135;-76
2021/05/11 00:21:28;;;;;;;0.30;0.30;;;15.10;70.00;;;;;;5079970;28;20057;-76
2021/05/11 00:23:54;;;;;;;0.60;0.40;;;15.10;70.10;;;;;;5080405;28;20039;-76
2021/05/11 00:26:19;;;;;;;0.32;0.32;;;15.00;70.10;;;;;;5081413;28;20032;-76
2021/05/11 00:28:45;;;;;;;0.40;0.40;;;15.00;70.10;;;;;;5081198;28;20048;-76
2021/05/11 00:31:11;;;;;;;0.80;0.40;;;15.00;70.20;;;;;;5080274;28;20040;-76
2021/05/11 00:33:36;;;;;;;0.40;0.40;;;14.90;70.30;;;;;;5098170;28;20543;-77
2021/05/11 00:36:02;;;;;;;0.40;0.40;;;14.90;70.40;;;;;;5079966;28;20040;-76
2021/05/11 00:38:28;;;;;;;0.65;0.30;;;14.80;70.40;;;;;;5098875;28;20036;-77
2021/05/11 00:40:54;;;;;;;0.50;0.30;;;14.80;70.40;;;;;;5048518;28;20497;-77
2021/05/11 00:43:20;;;;;;;0.38;0.32;;;14.80;70.50;;;;;;5059812;28;20047;-76
2021/05/11 00:45:46;;;;;;;0.40;0.40;;;14.80;70.60;;;;;;5092579;28;20082;-76
2021/05/11 00:48:12;;;;;;;0.40;0.40;;;14.80;70.60;;;;;;5074580;28;20039;-76
2021/05/11 00:50:37;;;;;;;0.40;0.32;;;14.80;70.70;;;;;;5071963;28;20055;-76
2021/05/11 00:53:03;;;;;;;0.80;0.40;;;14.80;70.80;;;;;;5092156;28;20075;-76
2021/05/11 00:55:29;;;;;;;1.48;0.40;;;14.80;70.80;;;;;;5092320;28;20040;-76
2021/05/11 00:57:55;;;;;;;0.73;0.60;;;14.70;70.90;;;;;;5071191;28;20041;-76
2021/05/11 01:00:21;;;;;;;0.95;0.60;;;14.70;70.90;;;;;;5074639;28;20562;-76
2021/05/11 01:02:47;;;;;;;0.30;0.30;;;14.60;70.90;;;;;;5092389;28;20079;-76
2021/05/11 01:05:13;;;;;;;1.13;0.60;;;14.60;71.00;;;;;;5073759;28;20067;-76
2021/05/11 01:07:38;;;;;;;0.57;0.40;;;14.60;71.10;;;;;;5080287;28;20063;-76
2021/05/11 01:10:05;;;;;;;0.40;0.40;;;14.50;71.10;;;;;;5065163;28;20044;-75
2021/05/11 01:12:31;;;;;;;0.85;0.50;;;14.60;71.30;;;;;;5097851;28;20039;-76
2021/05/11 01:14:57;;;;;;;0.60;0.52;;;14.50;71.30;;;;;;5048546;28;20048;-77
2021/05/11 01:17:27;;;;;;;1.23;0.45;;;14.40;71.40;;;;;;5084074;28;20036;-77
2021/05/11 01:19:57;;;;;;;1.27;0.40;;;14.50;71.50;;;;;;5104678;28;20048;-75
2021/05/11 01:25:13;;;;;;;0.98;0.50;;;14.40;71.50;;;;;;5108375;28;20086;-75
2021/05/11 01:30:55;;;;;;;0.50;0.43;;;14.40;71.60;;;;;;5084781;28;20071;-77
2021/05/11 01:43:58;;;;;;;0.40;0.40;;;14.40;71.80;;;;;;5095255;28;20087;-75
2021/05/11 01:46:40;;;;;;;0.75;0.40;;;14.40;71.80;;;;;;5077218;28;20123;-76
2021/05/11 01:49:39;;;;;;;;;;;14.40;71.90;;;;;;5064646;28;20127;-76
2021/05/11 01:52:19;;;;;;;0.25;0.20;;;14.30;71.80;;;;;;5094913;28;19935;-76
2021/05/11 01:54:47;;;;;;;0.43;0.30;;;14.30;71.80;;;;;;5095071;28;20081;-76
2021/05/11 01:57:40;;;;;;;1.30;0.40;;;14.30;72.00;;;;;;5073034;28;20072;-76
2021/05/11 02:22:38;;;;;;;0.30;0.30;;;14.30;72.30;;;;;;5065477;28;20044;-75
2021/05/11 02:24:14;;;;;;;0.28;0.28;;;14.30;72.50;;;;;;5080219;28;20072;-75
2021/05/11 02:26:40;;;;;;;0.40;0.40;;;14.20;72.40;;;;;;5045087;28;20077;-75
2021/05/11 02:29:06;;;;;;;0.57;0.40;;;14.20;72.50;;;;;;5097041;28;20437;-74
2021/05/11 02:31:32;;;;;;;0.93;0.57;;;14.20;72.50;;;;;;5078430;28;20078;-75
2021/05/11 02:33:58;;;;;;;1.30;0.50;;;14.30;72.60;;;;;;5045630;28;20047;-77
2021/05/11 02:36:23;;;;;;;1.05;0.45;;;14.20;72.60;;;;;;5098509;28;20558;-75
2021/05/11 02:38:49;;;;;;;1.30;0.40;;;14.20;72.70;;;;;;5077688;28;20052;-75
2021/05/11 02:41:14;;;;;;;0.50;0.50;;;14.20;72.70;;;;;;5099450;28;20094;-74
2021/05/11 02:43:42;;;;;;;0.40;0.40;;;14.30;72.80;;;;;;5078855;28;20045;-74
2021/05/11 02:46:08;;;;;;;0.30;0.30;;;14.20;72.80;;;;;;5080678;28;20121;-74
2021/05/11 02:48:34;;;;;;;0.30;0.30;;;14.20;72.90;;;;;;5077033;28;20037;-75
2021/05/11 02:50:59;;;;;;;0.50;0.40;;;14.10;72.90;;;;;;5098952;28;20051;-75
2021/05/11 02:53:25;;;;;;;0.43;0.30;;;14.20;73.00;;;;;;5098782;28;20024;-77
2021/05/11 02:55:51;;;;;;;0.93;0.43;;;14.10;73.00;;;;;;5076218;28;20074;-77
2021/05/11 02:58:16;;;;;;;0.52;0.30;;;14.20;73.10;;;;;;5059809;28;20032;-77
2021/05/11 03:00:42;;;;;;;0.40;0.40;;;14.20;73.10;;;;;;5094604;28;20032;-77
2021/05/11 03:03:09;;;;;;;0.30;0.30;;;14.20;73.20;;;;;;5094320;28;20132;-76
2021/05/11 03:05:34;;;;;;;0.60;0.40;;;14.10;73.20;;;;;;5076888;28;20048;-76
2021/05/11 03:08:00;;;;;;;0.30;0.30;;;14.20;73.30;;;;;;5095118;28;20059;-76
2021/05/11 03:10:26;;;;;;;0.30;0.30;;;14.10;73.30;;;;;;5076213;28;20036;-76
2021/05/11 03:12:51;;;;;;;0.60;0.45;;;14.10;73.40;;;;;;5094697;28;20127;-76
2021/05/11 03:15:17;;;;;;;0.30;0.30;;;14.10;73.50;;;;;;5075228;28;20155;-76
2021/05/11 03:17:43;;;;;;;0.30;0.30;;;14.10;73.60;;;;;;5098400;28;20482;-75
2021/05/11 03:20:12;;;;;;;0.60;0.43;;;14.20;73.70;;;;;;5081927;28;20051;-74
2021/05/11 03:22:38;;;;;;;0.60;0.40;;;14.10;73.70;;;;;;5099210;28;20446;-74
2021/05/11 03:25:04;;;;;;;0.55;0.40;;;14.10;73.70;;;;;;5081231;28;20075;-75
2021/05/11 03:27:30;;;;;;;0.32;0.32;;;14.00;73.80;;;;;;5080154;28;20044;-74
2021/05/11 03:29:55;;;;;;;0.30;0.30;;;14.00;73.80;;;;;;5099640;28;20036;-75
2021/05/11 03:32:21;;;;;;;0.30;0.30;;;14.00;73.90;;;;;;5099682;28;20107;-75
2021/05/11 03:34:47;;;;;;;0.40;0.40;;;14.00;73.90;;;;;;5099437;28;20051;-75
2021/05/11 03:37:12;;;;;;;1.83;0.60;;;14.00;73.90;;;;;;5099263;28;20047;-75
2021/05/11 03:39:40;;;;;;;0.90;0.40;;;14.00;74.00;;;;;;5100094;28;20118;-75
2021/05/11 03:42:15;;;;;;;0.50;0.50;;;14.00;74.10;;;;;;5101645;28;20032;-75
2021/05/11 03:44:44;;;;;;;1.65;0.40;;;13.90;74.10;;;;;;5083416;28;20051;-75
2021/05/11 03:47:09;;;;;;;0.73;0.50;;;14.00;74.20;;;;;;5101168;28;20107;-75
2021/05/11 03:49:35;;;;;;;0.20;0.20;;;13.90;74.30;;;;;;5082231;28;20032;-75
2021/05/11 03:52:01;;;;;;;0.30;0.30;;;13.90;74.30;;;;;;5102708;28;20036;-75
2021/05/11 03:54:26;;;;;;;0.57;0.35;;;13.90;74.30;;;;;;5102928;28;20044;-76
2021/05/11 03:56:52;;;;;;;0.40;0.40;;;13.90;74.30;;;;;;5084765;28;20052;-75
2021/05/11 03:59:20;;;;;;;0.47;0.30;;;13.90;74.30;;;;;;5102220;28;20040;-76
2021/05/11 04:01:46;;;;;;;0.40;0.40;;;14.00;74.40;;;;;;5085136;28;20165;-75
2021/05/11 04:04:12;;;;;;;0.30;0.30;;;14.00;74.30;;;;;;5064913;28;20083;-75
2021/05/11 04:06:39;;;;;;;0.40;0.40;;;13.90;74.30;;;;;;5083750;28;20039;-76
2021/05/11 04:09:13;;;;;;;0.40;0.40;;;13.90;74.40;;;;;;5064288;28;20127;-76
2021/05/11 04:12:08;;;;;;;0.90;0.50;;;13.90;74.40;;;;;;5081945;28;20485;-76
2021/05/11 04:16:12;;;;;;;0.68;0.47;;;13.90;74.40;;;;;;5082916;28;20075;-77
2021/05/11 04:17:10;;;;;;;0.40;0.40;;;13.90;74.40;;;;;;5083048;28;20046;-76
2021/05/11 04:19:35;;;;;;;0.43;0.43;;;13.90;74.40;;;;;;5078879;28;20508;-77
2021/05/11 04:22:02;;;;;;;0.90;0.50;;;13.80;74.40;;;;;;5098953;28;20129;-77
2021/05/11 04:24:28;;;;;;;0.93;0.40;;;13.80;74.50;;;;;;5098391;28;20123;-77
2021/05/11 04:26:55;;;;;;;0.75;0.50;;;13.90;74.60;;;;;;5048365;28;20128;-76
2021/05/11 04:29:21;;;;;;;0.98;0.60;;;13.90;74.70;;;;;;5066254;28;20129;-76
2021/05/11 04:31:47;;;;;;;0.30;0.30;;;13.80;74.70;;;;;;5077834;28;20032;-76
2021/05/11 04:34:12;;;;;;;0.68;0.47;;;13.90;74.80;;;;;;5081153;28;20043;-76
2021/05/11 04:36:38;;;;;;;0.70;0.40;;;13.90;74.70;;;;;;5081542;28;20460;-76
2021/05/11 04:39:05;;;;;;;0.43;0.43;;;13.90;74.80;;;;;;5100644;28;20044;-76
2021/05/11 04:41:31;;;;;;;0.77;0.50;;;13.90;74.80;;;;;;5089019;28;20048;-76
2021/05/11 04:44:00;;;;;;;0.80;0.57;;;13.90;74.80;;;;;;5105802;28;20040;-76
2021/05/11 04:46:38;;;;;;;0.50;0.50;;;13.90;74.70;;;;;;5088865;28;20040;-76
2021/05/11 04:49:04;;;;;;;0.40;0.40;;;14.00;74.70;;;;;;5089133;28;20044;-76
2021/05/11 04:51:29;;;;;;;0.50;0.50;;;14.00;74.70;;;;;;5105563;28;20513;-76
2021/05/11 04:53:55;;;;;;;0.40;0.40;;;14.00;74.60;;;;;;5087208;28;20053;-76
2021/05/11 04:56:21;;;;;;;0.40;0.30;;;14.00;75.30;;;;;;5087782;28;20091;-76
2021/05/11 04:58:47;;;;;;;0.60;0.40;;;14.00;74.70;;;;;;5087923;28;20048;-76
2021/05/11 05:01:12;;;;;;;0.52;0.43;;;14.00;74.70;;;;;;5086590;28;20105;-76
2021/05/11 05:03:40;;;;;;;1.27;0.40;;;14.00;74.70;;;;;;5103904;28;20123;-76
2021/05/11 05:06:06;;;;;;;0.30;0.30;;;14.00;74.70;;;;;;5103871;28;20040;-77
2021/05/11 05:08:32;;;;;;;0.50;0.40;;;14.00;74.70;;;;;;5102551;28;20169;-75
2021/05/11 05:10:58;;;;;;;0.30;0.30;;;14.00;74.70;;;;;;5085848;28;20048;-75
2021/05/11 05:13:26;;;;;;;0.32;0.32;;;14.10;74.70;;;;;;5099686;28;20040;-76
2021/05/11 05:15:54;;;;;;;1.75;0.40;;;14.10;74.70;;;;;;5064969;28;20037;-77
2021/05/11 05:18:21;;;;;;;0.30;0.30;;;14.10;74.70;;;;;;5077195;28;20381;-75
2021/05/11 05:20:50;;;;;;;0.50;0.40;;;14.10;74.70;;;;;;5107505;28;20043;-76
2021/05/11 05:23:17;;;;;;;0.40;0.40;;;14.10;74.70;;;;;;5096842;28;20020;-78
2021/05/11 05:25:52;;;;;;;0.30;0.30;;;14.10;74.70;;;;;;5114152;28;20429;-77
2021/05/11 05:28:18;;;;;;;0.35;0.32;;;14.20;74.80;;;;;;5112415;28;20044;-77
2021/05/11 05:30:44;;;;;;;0.40;0.40;;;14.20;74.80;;;;;;5078923;28;20032;-77
2021/05/11 05:33:09;;;;;;;0.40;0.40;;;14.20;74.80;;;;;;5095895;28;20020;-76
2021/05/11 05:35:35;;;;;;;0.30;0.30;;;14.20;74.80;;;;;;5095486;28;20104;-77
2021/05/11 05:38:01;;;;;;;0.35;0.35;;;14.20;74.90;;;;;;5094057;28;20104;-77
2021/05/11 05:40:26;;;;;;;0.40;0.30;;;14.20;74.90;;;;;;5096620;28;20055;-76
2021/05/11 05:42:53;;;;;;;0.30;0.30;;;14.20;74.90;;;;;;5113622;28;20108;-77
2021/05/11 05:45:20;;;;;;;0.30;0.30;;;14.20;74.80;;;;;;5106856;28;20038;-77
2021/05/11 05:47:53;;;;;;;0.47;0.47;;;14.30;74.90;;;;;;5098385;28;20079;-77
2021/05/11 05:50:26;;;;;;;0.40;0.40;;;14.40;74.90;;;;;;5084589;28;20038;-77
2021/05/11 05:53:00;;;;;;;0.68;0.60;;;14.30;74.90;;;;;;5098360;28;20055;-77
2021/05/11 05:55:25;;;;;;;1.00;0.55;;;14.30;74.90;;;;;;5062522;28;20495;-77
2021/05/11 05:57:51;;;;;;;0.40;0.30;;;14.40;74.90;;;;;;5085386;28;20048;-77
2021/05/11 06:00:18;;;;;;;0.43;0.30;;;14.40;74.90;;;;;;5084775;28;20044;-75
2021/05/11 06:02:46;;;;;;;0.73;0.35;;;14.50;75.00;;;;;;5102280;28;20040;-76
2021/05/11 06:05:13;;;;;;;0.68;0.43;;;14.50;74.90;;;;;;5097701;28;20062;-76
2021/05/11 06:07:40;;;;;;;0.88;0.55;;;14.50;74.80;;;;;;5098604;28;20024;-75
2021/05/11 06:10:07;;;;;;;0.63;0.50;;;14.60;74.80;;;;;;5108126;28;20039;-75
2021/05/11 06:12:38;;;;;;;1.85;0.65;;;14.60;74.70;;;;;;5097366;28;20066;-75
2021/05/11 06:17:47;;;;;;;0.30;0.30;;;14.70;74.60;;;;;;5114794;28;20467;-76
2021/05/11 06:20:14;;;;;;;0.73;0.60;;;14.80;74.60;;;;;;5081325;28;20045;-75
2021/05/11 06:22:40;;;;;;;0.70;0.50;;;14.80;74.60;;;;;;5097684;28;20036;-75
2021/05/11 06:25:08;;;;;;;1.63;0.40;;;14.80;74.50;;;;;;5080765;28;20619;-74
2021/05/11 06:27:34;;;;;;;0.93;0.40;;;15.00;74.60;;;;;;5095374;28;20398;-74
2021/05/11 06:30:00;;;;;;;0.40;0.30;;;15.00;74.60;;;;;;5094698;28;20130;-74
2021/05/11 06:32:27;;;;;;;0.40;0.40;;;15.10;74.60;;;;;;5095993;28;20039;-75
2021/05/11 06:34:58;;;;;;;0.60;0.47;;;15.10;74.50;;;;;;5075592;28;20051;-75
2021/05/11 06:37:23;;;;;;;0.70;0.50;;;15.20;74.40;;;;;;5082283;28;20066;-74
2021/05/11 06:39:50;;;;;;;0.80;0.70;;;15.30;74.40;;;;;;5095543;28;20043;-74
2021/05/11 06:42:20;;;;;;;0.80;0.55;;;15.40;74.40;;;;;;5076887;28;20046;-74
2021/05/11 06:45:03;;;;;;;1.48;0.55;;;15.40;74.40;;;;;;5097341;28;20049;-76
2021/05/11 06:47:33;;;;;;;0.55;0.55;;;15.50;74.30;;;;;;5098518;28;20040;-75
2021/05/11 06:50:16;;;;;;;0.50;0.40;;;15.60;74.30;;;;;;5077554;28;20040;-75
2021/05/11 06:52:53;;;;;;;0.50;0.43;;;15.60;74.10;;;;;;5067448;28;20469;-76
2021/05/11 06:55:19;;;;;;;0.47;0.45;;;15.70;74.10;;;;;;5077907;28;20094;-75
2021/05/11 06:57:45;;;;;;;1.20;0.50;;;15.80;74.00;;;;;;5094354;28;20067;-77
2021/05/11 07:00:11;;;;;;;0.35;0.35;;;15.80;73.90;;;;;;5098699;28;20547;-76
2021/05/11 07:02:37;;;;;;;0.90;0.40;;;15.80;73.90;;;;;;5094742;28;20406;-76
2021/05/11 07:05:03;;;;;;;0.47;0.47;;;15.80;74.00;;;;;;5077866;28;20040;-76
2021/05/11 07:07:31;;;;;;;0.70;0.40;;;15.80;74.80;;;;;;5082992;28;20040;-74
2021/05/11 07:15:19;;;;;;;0.40;0.40;;;16.40;73.70;;;;;;5078369;28;20044;-74
2021/05/11 07:17:44;;;;;;;0.50;0.50;;;16.70;73.20;;;;;;5043432;28;20048;-75
2021/05/11 07:20:11;;;;;;;1.70;0.55;;;17.00;72.60;;;;;;5076062;28;20041;-76
2021/05/11 07:22:36;;;;;;;1.73;0.73;;;17.20;72.20;;;;;;5074913;28;20135;-74
2021/05/11 07:25:08;;;;;;;2.10;0.73;;;17.30;71.80;;;;;;5094017;28;20123;-74
2021/05/11 07:30:27;;;;;;;0.98;0.63;;;17.50;71.50;;;;;;5079471;28;20087;-76
2021/05/11 07:32:53;;;;;;;1.77;0.77;;;17.60;71.40;;;;;;5087810;28;20048;-75
2021/05/11 07:35:19;;;;;;;1.52;0.70;;;17.80;71.10;;;;;;5081231;28;20393;-75
2021/05/11 07:37:45;;;;;;;1.85;0.70;;;18.00;71.10;;;;;;5077122;28;20051;-76
2021/05/11 07:40:11;;;;;;;0.60;0.57;;;18.00;70.70;;;;;;5079679;28;20040;-76
2021/05/11 07:42:37;;;;;;;0.68;0.40;;;18.10;70.70;;;;;;5097228;28;20068;-75
2021/05/11 07:45:04;;;;;;;0.88;0.60;;;18.40;70.90;;;;;;5097617;28;20044;-76
2021/05/11 07:47:38;;;;;;;1.00;0.60;;;18.70;70.20;;;;;;5093152;28;20493;-76
2021/05/11 07:50:23;;;;;;;1.50;0.80;;;18.80;69.90;;;;;;5075837;28;20485;-77
2021/05/11 08:04:07;;;;;;;1.67;0.90;;;18.90;69.40;;;;;;5103440;28;20513;-75
2021/05/11 08:14:29;;;;;;;0.50;0.50;;;18.80;69.90;;;;;;5093620;28;20383;-75
2021/05/11 08:16:58;;;;;;;0.70;0.40;;;18.70;70.10;;;;;;5094056;28;20365;-75
2021/05/11 08:30:06;;;;;;;0.63;0.33;;;18.60;70.80;;;;;;5105036;28;20052;-75
2021/05/11 08:32:32;;;;;;;0.50;0.50;;;18.60;70.80;;;;;;5090926;28;20056;-75
2021/05/11 08:34:57;;;;;;;0.63;0.60;;;18.50;70.80;;;;;;5080564;28;20045;-77
2021/05/11 08:37:23;;;;;;;0.60;0.60;;;18.50;70.80;;;;;;5101759;28;20107;-75
2021/05/11 08:39:51;;;;;;;1.80;0.80;;;18.50;70.90;;;;;;5091014;28;20060;-77
2021/05/11 08:42:17;;;;;;;0.65;0.40;;;18.40;71.00;;;;;;5092853;28;20056;-76
2021/05/11 08:44:43;;;;;;;1.33;0.70;;;18.30;71.10;;;;;;5113192;28;20032;-76
2021/05/11 08:47:10;;;;;;;0.88;0.70;;;18.30;71.40;;;;;;5068808;28;20051;-76
2021/05/11 08:49:39;;;;;;;1.48;0.68;;;18.20;71.30;;;;;;5062584;28;20040;-76
2021/05/11 08:52:26;;;;;;;1.02;0.50;;;18.10;71.30;;;;;;5105034;28;20060;-75
2021/05/11 08:55:25;;;;;;;1.45;0.70;;;18.10;71.40;;;;;;5090877;28;20079;-77
2021/05/11 09:06:17;;;;;;;1.10;0.73;;;17.90;71.30;;;;;;5063337;28;20048;-75
2021/05/11 09:15:06;;;;;;;0.50;0.50;;;17.90;71.40;;;;;;5092206;28;20056;-75
2021/05/11 09:25:40;;;;;;;0.30;0.30;;;17.90;71.10;;;;;;5091789;28;20067;-73
2021/05/11 09:28:33;;;;;;;1.48;0.60;;;17.90;71.00;;;;;;5091990;28;20040;-74
2021/05/11 09:33:49;;;;;;;0.40;0.40;;;18.00;71.00;;;;;;5106902;28;20416;-75
2021/05/11 09:56:10;;;;;;;1.37;0.60;;;17.70;70.90;;;;;;5077599;28;20032;-74
2021/05/11 10:10:16;;;;;;;1.42;0.70;;;17.80;71.20;;;;;;5079891;28;20051;-76
2021/05/11 10:36:23;;;;;;;0.53;0.53;;;19.00;68.10;;;;;;5096185;28;20028;-75
2021/05/11 10:41:06;;;;;;;0.90;0.60;;;19.90;66.10;;;;;;5079357;28;20516;-76
2021/05/11 10:49:17;;;;;;;1.00;0.50;;;19.70;66.90;;;;;;5077503;28;20578;-77
2021/05/11 10:51:43;;;;;;;0.43;0.43;;;19.80;66.50;;;;;;5098316;28;20407;-76
2021/05/11 10:54:09;;;;;;;0.88;0.60;;;19.80;66.40;;;;;;5079032;28;20090;-77
2021/05/11 10:56:47;;;;;;;0.80;0.55;;;20.00;66.20;;;;;;5061755;28;20040;-75
2021/05/11 11:02:48;;;;;;;1.17;0.75;;;20.00;65.60;;;;;;5065257;28;20084;-74
2021/05/11 11:04:53;;;;;;;1.27;0.80;;;20.00;65.50;;;;;;5079460;28;20044;-75
2021/05/11 11:07:31;;;;;;;1.25;0.80;;;20.00;65.60;;;;;;5094753;28;20373;-74
2021/05/11 11:10:00;;;;;;;0.50;0.50;;;19.80;65.60;;;;;;5075963;28;20047;-74
2021/05/11 11:12:35;;;;;;;0.50;0.50;;;19.80;65.90;;;;;;5097852;28;20074;-76
2021/05/11 11:15:04;;;;;;;1.23;0.60;;;19.80;65.80;;;;;;5098624;28;20031;-78
2021/05/11 11:17:30;;;;;;;1.30;1.00;;;19.80;66.00;;;;;;5093405;28;20044;-75
2021/05/11 11:20:00;;;;;;;0.70;0.70;;;19.80;65.90;;;;;;5095101;28;20040;-77
2021/05/11 11:25:14;;;;;;;1.42;0.82;;;19.80;66.00;;;;;;5078572;28;20050;-74
2021/05/11 11:27:39;;;;;;;0.77;0.70;;;19.90;65.50;;;;;;5094259;28;20066;-77
2021/05/11 11:30:09;;;;;;;1.30;0.80;;;20.00;65.20;;;;;;5074790;28;20048;-77
2021/05/11 11:32:36;;;;;;;0.82;0.50;;;20.00;65.30;;;;;;5074458;28;20048;-77
2021/05/11 11:35:04;;;;;;;1.40;0.63;;;19.90;65.30;;;;;;5060329;28;20138;-77
2021/05/11 11:37:30;;;;;;;0.60;0.60;;;19.80;65.40;;;;;;5070321;28;20028;-78
2021/05/11 11:39:59;;;;;;;2.40;0.68;;;19.70;65.80;;;;;;5082404;28;20055;-77
2021/05/11 11:42:33;;;;;;;0.88;0.63;;;19.50;66.10;;;;;;5061674;28;20043;-76
2021/05/11 11:44:59;;;;;;;0.70;0.50;;;19.40;66.50;;;;;;5083942;28;20036;-77
2021/05/11 11:47:26;;;;;;;0.63;0.52;;;19.20;66.90;;;;;;5079537;28;20398;-77
2021/05/11 11:49:55;;;;;;;0.77;0.60;;;19.20;67.10;;;;;;5081053;28;20040;-77
2021/05/11 11:55:24;;;;;;;0.87;0.50;;;19.00;67.40;;;;;;5080456;28;20055;-76
2021/05/11 11:57:53;;;;;;;0.47;0.38;;;18.90;67.70;;;;;;5077862;28;20044;-75
2021/05/11 12:00:24;;;;;;;0.32;0.32;;;18.90;67.80;;;;;;5073038;28;20056;-76
2021/05/11 12:03:02;;;;;;;0.95;0.30;;;18.70;67.90;;;;;;5078892;28;20063;-77
2021/05/11 12:05:31;;;;;;;0.95;0.52;;;18.60;68.20;;;;;;5097786;28;20052;-75
2021/05/11 12:08:06;;;;;;;0.90;0.40;;;18.50;68.30;;;;;;5100843;28;20040;-75
2021/05/11 12:10:33;;;;;;;1.05;0.40;;;18.40;68.30;;;;;;5097908;28;20126;-76
2021/05/11 12:13:06;;;;;;;0.73;0.60;;;18.40;68.40;;;;;;5082204;28;20097;-76
2021/05/11 12:15:32;;;;;;;0.73;0.50;;;18.30;68.40;;;;;;5098964;28;20128;-77
2021/05/11 12:18:17;;;;;;;0.68;0.40;;;18.30;68.40;;;;;;5090531;28;20399;-77
2021/05/11 12:20:44;;;;;;;0.65;0.60;;;18.30;68.40;;;;;;5046431;28;20126;-78
2021/05/11 12:23:15;;;;;;;0.98;0.60;;;18.20;68.40;;;;;;5060393;28;20051;-78
2021/05/11 12:25:43;;;;;;;1.65;0.60;;;18.20;68.30;;;;;;5058991;28;20048;-78
2021/05/11 12:28:09;;;;;;;0.40;0.40;;;18.30;68.30;;;;;;5094217;28;20093;-78
2021/05/11 12:30:41;;;;;;;0.32;0.32;;;18.20;68.30;;;;;;5058852;28;20103;-81
2021/05/11 12:33:12;;;;;;;0.57;0.30;;;18.20;68.40;;;;;;5085428;28;20090;-78
2021/05/11 12:35:41;;;;;;;0.38;0.38;;;18.20;68.40;;;;;;5073026;28;20079;-77
2021/05/11 12:38:26;;;;;;;0.65;0.50;;;18.10;68.40;;;;;;5056873;28;20045;-75
2021/05/11 12:41:12;;;;;;;1.45;0.63;;;18.10;68.50;;;;;;5079055;28;20044;-75
2021/05/11 12:43:44;;;;;;;1.95;0.60;;;18.00;68.60;;;;;;5096716;28;20044;-76
2021/05/11 12:46:15;;;;;;;1.65;0.65;;;18.00;68.70;;;;;;5107629;28;20055;-76
2021/05/11 12:48:52;;;;;;;0.80;0.50;;;18.00;68.80;;;;;;5067960;28;20040;-77
2021/05/11 12:51:40;;;;;;;0.70;0.50;;;18.00;68.80;;;;;;5060260;28;20086;-78
2021/05/11 12:54:36;;;;;;;1.95;0.57;;;18.00;68.80;;;;;;5071094;28;20040;-73
2021/05/11 12:57:10;;;;;;;0.75;0.68;;;18.00;69.00;;;;;;5109837;28;20031;-76
2021/05/11 12:59:51;;;;;;;3.35;0.70;;;17.90;69.10;;;;;;5084043;28;20047;-75
2021/05/11 13:13:53;;;;;;;0.70;0.70;;;17.50;69.50;;;;;;5084315;28;20493;-75
2021/05/11 13:16:49;;;;;;;0.82;0.55;;;17.50;69.50;;;;;;5091096;28;20049;-76
2021/05/11 13:27:36;;;;;;;1.02;0.70;;;17.20;70.30;;;;;;5090517;28;20060;-74
2021/05/11 13:30:26;;;;;;;1.42;0.70;;;17.10;70.50;;;;;;5107133;28;20090;-75
2021/05/11 13:32:58;;;;;;;0.80;0.63;;;17.10;70.60;;;;;;5087646;28;20052;-74
2021/05/11 13:35:23;;;;;;;1.23;0.88;;;17.10;70.60;;;;;;5075469;28;20040;-73
2021/05/11 13:37:49;;;;;;;0.57;0.52;;;17.10;70.70;;;;;;5075692;28;20047;-73
2021/05/11 13:40:15;;;;;;;1.30;0.50;;;17.00;70.70;;;;;;5095719;28;20032;-74
2021/05/11 13:42:41;;;;;;;0.65;0.60;;;17.00;70.70;;;;;;5101570;28;20029;-74
2021/05/11 13:45:08;;;;;;;1.25;0.63;;;17.00;70.80;;;;;;5101873;28;20055;-76
2021/05/11 13:47:34;;;;;;;0.90;0.60;;;16.90;70.80;;;;;;5060515;28;20041;-77
2021/05/11 13:50:02;;;;;;;0.70;0.43;;;16.80;70.80;;;;;;5098500;28;20067;-74
2021/05/11 13:52:29;;;;;;;1.17;0.60;;;16.80;70.90;;;;;;5086600;28;20059;-76
2021/05/11 13:55:00;;;;;;;0.68;0.30;;;16.80;71.00;;;;;;5087819;28;20048;-74
2021/05/11 14:01:32;;;;;;;1.00;0.40;;;16.70;71.10;;;;;;5111187;28;20044;-75
2021/05/11 14:02:55;;;;;;;0.95;0.52;;;16.70;71.30;;;;;;5073993;28;20063;-76
2021/05/11 14:05:21;;;;;;;1.42;0.57;;;16.60;71.80;;;;;;5072778;28;20071;-75
2021/05/11 14:07:47;;;;;;;0.47;0.40;;;16.60;71.30;;;;;;5093544;28;20097;-74
2021/05/11 14:10:14;;;;;;;0.82;0.43;;;16.60;71.50;;;;;;5082307;28;20040;-77
2021/05/11 14:12:40;;;;;;;0.47;0.47;;;16.50;71.50;;;;;;5101080;28;20509;-77
2021/05/11 14:15:07;;;;;;;0.50;0.40;;;16.50;71.60;;;;;;5079283;28;20127;-75
2021/05/11 14:17:33;;;;;;;0.55;0.50;;;16.50;71.60;;;;;;5084523;28;20029;-75
2021/05/11 14:19:59;;;;;;;0.68;0.40;;;16.50;71.70;;;;;;5087155;28;20047;-75
2021/05/11 14:22:26;;;;;;;1.45;0.60;;;16.40;71.60;;;;;;5079560;28;20045;-75
2021/05/11 14:24:51;;;;;;;1.02;0.60;;;16.40;71.60;;;;;;5104223;28;20040;-75
2021/05/11 14:27:17;;;;;;;0.43;0.40;;;16.40;71.70;;;;;;5106597;28;20147;-76
2021/05/11 14:29:44;;;;;;;0.52;0.50;;;16.40;71.80;;;;;;5086869;28;20020;-77
2021/05/11 14:32:10;;;;;;;1.15;0.50;;;16.40;71.90;;;;;;5109441;28;20054;-74
2021/05/11 14:34:36;;;;;;;0.50;0.50;;;16.40;71.90;;;;;;5107918;28;20071;-74
2021/05/11 14:37:05;;;;;;;1.80;0.52;;;16.30;71.80;;;;;;5112960;28;20032;-75
2021/05/11 14:39:31;;;;;;;0.70;0.55;;;16.50;72.00;;;;;;5053575;28;20044;-75
2021/05/11 14:41:58;;;;;;;0.98;0.70;;;16.50;71.90;;;;;;5106304;28;20040;-75
2021/05/11 14:44:25;;;;;;;0.75;0.57;;;16.40;71.90;;;;;;5090520;28;20072;-77
2021/05/11 14:46:52;;;;;;;0.98;0.50;;;16.40;72.00;;;;;;5091402;28;20040;-75
2021/05/11 14:49:19;;;;;;;0.73;0.70;;;16.40;72.00;;;;;;5083344;28;20035;-74
2021/05/11 14:51:44;;;;;;;1.15;0.70;;;16.50;72.20;;;;;;5075894;28;20131;-74
2021/05/11 14:54:10;;;;;;;2.67;0.80;;;16.40;72.20;;;;;;5094814;28;20067;-75
2021/05/11 14:56:40;;;;;;;0.82;0.60;;;16.40;72.20;;;;;;5087620;28;20043;-74
2021/05/11 14:59:08;;;;;;;1.35;0.70;;;16.40;72.30;;;;;;5072494;28;20044;-76
2021/05/11 15:01:34;;;;;;;1.35;0.50;;;16.40;72.30;;;;;;5092325;28;20055;-77
2021/05/11 15:04:00;;;;;;;1.27;0.75;;;16.40;72.30;;;;;;5107467;28;20085;-79
2021/05/11 15:06:27;;;;;;;1.48;0.75;;;16.40;72.40;;;;;;5092219;28;20036;-75
2021/05/11 15:08:53;;;;;;;0.75;0.70;;;16.40;72.40;;;;;;5080393;28;20036;-74
2021/05/11 15:11:19;;;;;;;0.80;0.75;;;16.40;72.50;;;;;;5077640;28;20036;-74
2021/05/11 15:13:46;;;;;;;1.00;0.80;;;16.40;72.60;;;;;;5102167;28;20047;-74
2021/05/11 15:16:17;;;;;;;1.33;0.98;;;16.40;72.70;;;;;;5085617;28;20036;-76
2021/05/11 15:18:43;;;;;;;1.50;1.02;;;16.40;72.80;;;;;;5097460;28;20486;-75
2021/05/11 15:21:08;;;;;;;0.73;0.73;;;16.30;72.80;;;;;;5076152;28;20127;-76
2021/05/11 15:23:34;;;;;;;1.75;1.00;;;16.30;73.20;;;;;;5076279;28;20058;-74
2021/05/11 15:26:00;;;;;;;0.98;0.63;;;16.30;73.00;;;;;;5099817;28;20054;-75
2021/05/11 15:28:26;;;;;;;1.20;0.80;;;16.30;73.10;;;;;;5081404;28;20036;-77
2021/05/11 15:30:52;;;;;;;1.13;0.90;;;16.30;73.20;;;;;;5100807;28;20084;-75
2021/05/11 15:33:17;;;;;;;1.15;1.00;;;16.30;73.30;;;;;;5076310;28;20036;-75
2021/05/11 15:35:43;;;;;;;0.98;0.80;;;16.40;73.50;;;;;;5094133;28;20123;-75
2021/05/11 15:38:09;;;;;;;1.17;1.05;;;16.20;73.40;;;;;;5093692;28;20036;-75
2021/05/11 15:40:37;;;;;;;1.23;1.13;;;16.30;73.60;;;;;;5074780;28;20044;-75
2021/05/11 15:43:05;;;;;;;1.10;1.00;;;16.30;73.70;;;;;;5095039;28;20140;-75
2021/05/11 15:45:32;;;;;;;1.10;1.00;;;16.20;73.60;;;;;;5095880;28;20076;-75
2021/05/11 15:48:03;;;;;;;0.73;0.73;;;16.20;73.60;;;;;;5095124;28;20048;-75
2021/05/11 15:50:32;;;;;;;1.02;0.90;;;16.20;73.80;;;;;;5098969;28;20480;-77
2021/05/11 15:53:02;;;;;;;1.30;0.93;;;16.10;73.80;;;;;;5082594;28;20052;-77
2021/05/11 15:55:30;;;;;;;1.55;0.98;;;16.20;73.90;;;;;;5088700;28;20070;-77
2021/05/11 15:57:56;;;;;;;1.50;1.10;;;16.10;73.90;;;;;;5077356;28;20043;-76
2021/05/11 16:00:22;;;;;;;1.73;1.15;;;16.10;73.90;;;;;;5100187;28;20051;-78
2021/05/11 16:02:49;;;;;;;1.13;0.82;;;16.10;73.90;;;;;;5078742;28;20119;-78
2021/05/11 16:05:17;;;;;;;1.60;1.15;;;16.20;74.00;;;;;;5076308;28;20071;-76
2021/05/11 16:07:43;;;;;;;1.10;1.00;;;16.10;74.70;;;;;;5104390;28;20046;-75
2021/05/11 16:10:10;;;;;;;1.33;0.98;;;16.20;74.10;;;;;;5105204;28;20056;-76
2021/05/11 16:12:36;;;;;;;1.05;0.90;;;16.10;74.20;;;;;;5077631;28;20036;-77
2021/05/11 16:15:07;;;;;;;0.82;0.82;;;16.10;74.20;;;;;;5093522;28;20043;-74